createdAt,value
2023-10-02T00:01:18.439Z,29.26
2023-10-02T00:02:40.891Z,29.28
2023-10-02T00:03:43.988Z,29.28
2023-10-02T00:04:46.935Z,29.24
2023-10-02T00:05:52.223Z,29.22
2023-10-02T00:07:06.972Z,29.22
2023-10-02T00:08:26.364Z,29.22
2023-10-02T00:09:28.767Z,29.23
2023-10-02T00:10:31.677Z,29.21
2023-10-02T00:11:37.429Z,29.19
2023-10-02T00:12:39.905Z,29.18
2023-10-02T00:13:42.603Z,29.17
2023-10-02T00:14:44.979Z,29.17
2023-10-02T00:15:47.410Z,29.15
2023-10-02T00:17:02.876Z,29.13
2023-10-02T00:18:06.312Z,29.17
2023-10-02T00:19:19.855Z,29.15
2023-10-02T00:20:23.591Z,29.15
2023-10-02T00:21:27.898Z,29.14
2023-10-02T00:22:37.153Z,29.14
2023-10-02T00:23:59.564Z,29.14
2023-10-02T00:25:17.580Z,29.15
2023-10-02T00:26:20.080Z,29.15
2023-10-02T00:27:22.338Z,29.11
2023-10-02T00:28:31.945Z,29.11
2023-10-02T00:29:35.087Z,29.11
2023-10-02T00:30:38.519Z,29.10
2023-10-02T00:31:43.850Z,29.09
2023-10-02T00:32:49.257Z,29.09
2023-10-02T00:33:52.110Z,29.08
2023-10-02T00:34:55.056Z,29.08
2023-10-02T00:35:57.788Z,29.07
2023-10-02T00:37:15.049Z,29.09
2023-10-02T00:38:17.369Z,29.08
2023-10-02T00:39:26.337Z,29.07
2023-10-02T00:40:31.656Z,29.06
2023-10-02T00:41:34.532Z,29.05
2023-10-02T00:42:38.259Z,29.06
2023-10-02T00:43:46.952Z,29.05
2023-10-02T00:44:53.482Z,29.03
2023-10-02T00:46:00.510Z,29.04
2023-10-02T00:47:05.362Z,29.04
2023-10-02T00:48:26.731Z,29.04
2023-10-02T00:49:36.672Z,29.06
2023-10-02T00:50:50.477Z,29.04
2023-10-02T00:52:02.005Z,29.05
2023-10-02T00:53:06.816Z,29.02
2023-10-02T00:54:25.104Z,29.02
2023-10-02T00:55:33.786Z,29.04
2023-10-02T00:56:36.377Z,29.02
2023-10-02T00:57:42.729Z,29.01
2023-10-02T00:58:45.581Z,28.99
2023-10-02T00:59:48.555Z,28.98
2023-10-02T01:00:52.524Z,28.97
2023-10-02T01:01:57.814Z,28.96
2023-10-02T01:03:05.407Z,28.96
2023-10-02T01:04:11.903Z,28.95
2023-10-02T01:05:17.449Z,28.97
2023-10-02T01:06:23.206Z,28.96
2023-10-02T01:07:25.546Z,28.95
2023-10-02T01:08:49.108Z,28.94
2023-10-02T01:10:10.945Z,28.96
2023-10-02T01:11:15.778Z,28.97
2023-10-02T01:12:19.808Z,28.94
2023-10-02T01:13:25.703Z,28.91
2023-10-02T01:14:41.735Z,28.92
2023-10-02T01:16:52.371Z,28.93
2023-10-02T01:18:09.597Z,28.90
2023-10-02T01:19:12.612Z,28.92
2023-10-02T01:20:34.036Z,28.90
2023-10-02T01:21:39.096Z,28.92
2023-10-02T01:22:43.927Z,28.90
2023-10-02T01:24:13.074Z,28.94
2023-10-02T01:25:17.181Z,28.90
2023-10-02T01:26:20.660Z,28.90
2023-10-02T01:27:23.206Z,28.87
2023-10-02T01:28:50.587Z,28.92
2023-10-02T01:30:13.245Z,28.89
2023-10-02T01:31:32.356Z,28.90
2023-10-02T01:32:34.819Z,28.89
2023-10-02T01:33:37.063Z,28.86
2023-10-02T01:34:41.700Z,28.86
2023-10-02T01:35:49.446Z,28.85
2023-10-02T01:36:52.738Z,28.84
2023-10-02T01:37:56.778Z,28.84
2023-10-02T01:39:14.695Z,28.87
2023-10-02T01:40:35.006Z,28.83
2023-10-02T01:41:37.740Z,28.84
2023-10-02T01:42:40.410Z,28.81
2023-10-02T01:43:46.704Z,28.81
2023-10-02T01:44:56.649Z,28.81
2023-10-02T01:46:01.511Z,28.77
2023-10-02T01:47:05.754Z,28.80
2023-10-02T01:48:09.479Z,28.79
2023-10-02T01:49:25.539Z,28.78
2023-10-02T01:50:31.329Z,28.80
2023-10-02T01:51:37.110Z,28.78
2023-10-02T01:52:51.167Z,28.77
2023-10-02T01:53:58.846Z,28.78
2023-10-02T01:55:01.410Z,28.78
2023-10-02T01:56:11.432Z,28.76
2023-10-02T01:57:25.642Z,28.75
2023-10-02T01:58:29.069Z,28.76
2023-10-02T01:59:31.350Z,28.75
2023-10-02T02:00:36.130Z,28.75
2023-10-02T02:02:00.781Z,28.74
2023-10-02T02:03:19.521Z,28.76
2023-10-02T02:04:26.119Z,28.78
2023-10-02T02:05:31.620Z,28.73
2023-10-02T02:06:35.608Z,28.72
2023-10-02T02:07:37.836Z,28.71
2023-10-02T02:08:49.060Z,28.70
2023-10-02T02:09:51.355Z,28.69
2023-10-02T02:10:55.529Z,28.69
2023-10-02T02:12:10.024Z,28.74
2023-10-02T02:13:14.592Z,28.70
2023-10-02T02:14:20.944Z,28.69
2023-10-02T02:15:23.235Z,28.67
2023-10-02T02:16:35.291Z,28.67
2023-10-02T02:17:39.099Z,28.67
2023-10-02T02:18:43.604Z,28.66
2023-10-02T02:19:50.492Z,28.65
2023-10-02T02:20:59.922Z,28.64
2023-10-02T02:22:03.735Z,28.65
2023-10-02T02:23:09.013Z,28.63
2023-10-02T02:24:13.215Z,28.64
2023-10-02T02:25:15.553Z,28.63
2023-10-02T02:26:24.442Z,28.62
2023-10-02T02:27:27.160Z,28.63
2023-10-02T02:28:44.685Z,28.62
2023-10-02T02:29:51.490Z,28.65
2023-10-02T02:30:53.748Z,28.62
2023-10-02T02:31:56.648Z,28.61
2023-10-02T02:33:01.703Z,28.58
2023-10-02T02:34:10.181Z,28.59
2023-10-02T02:35:16.043Z,28.59
2023-10-02T02:36:23.233Z,28.59
2023-10-02T02:37:30.220Z,28.58
2023-10-02T02:38:34.521Z,28.58
2023-10-02T02:39:40.132Z,28.57
2023-10-02T02:40:42.913Z,28.57
2023-10-02T02:41:45.234Z,28.57
2023-10-02T02:42:51.830Z,28.54
2023-10-02T02:43:54.348Z,28.55
2023-10-02T02:44:56.684Z,28.55
2023-10-02T02:45:58.932Z,28.53
2023-10-02T02:47:01.476Z,28.53
2023-10-02T02:48:07.897Z,28.52
2023-10-02T02:49:12.204Z,28.53
2023-10-02T02:50:16.019Z,28.52
2023-10-02T02:51:23.098Z,28.52
2023-10-02T02:52:27.042Z,28.53
2023-10-02T02:53:33.142Z,28.52
2023-10-02T02:54:35.504Z,28.49
2023-10-02T02:55:37.744Z,28.51
2023-10-02T02:56:40.118Z,28.50
2023-10-02T02:57:47.161Z,28.50
2023-10-02T02:58:51.974Z,28.49
2023-10-02T03:00:16.473Z,28.51
2023-10-02T03:01:24.029Z,28.52
2023-10-02T03:02:28.068Z,28.50
2023-10-02T03:03:36.258Z,28.48
2023-10-02T03:04:39.734Z,28.49
2023-10-02T03:05:42.438Z,28.48
2023-10-02T03:06:45.182Z,28.46
2023-10-02T03:07:50.165Z,28.46
2023-10-02T03:08:53.858Z,28.47
2023-10-02T03:10:00.180Z,28.46
2023-10-02T03:11:07.752Z,28.45
2023-10-02T03:12:11.108Z,28.44
2023-10-02T03:13:19.661Z,28.44
2023-10-02T03:14:23.237Z,28.45
2023-10-02T03:15:44.061Z,28.42
2023-10-02T03:16:46.750Z,28.44
2023-10-02T03:17:52.601Z,28.42
2023-10-02T03:18:56.392Z,28.42
2023-10-02T03:20:01.809Z,28.43
2023-10-02T03:21:08.895Z,28.41
2023-10-02T03:22:11.477Z,28.41
2023-10-02T03:23:13.874Z,28.40
2023-10-02T03:24:20.159Z,28.39
2023-10-02T03:25:29.259Z,28.38
2023-10-02T03:26:32.152Z,28.39
2023-10-02T03:27:34.569Z,28.39
2023-10-02T03:28:36.825Z,28.38
2023-10-02T03:29:39.049Z,28.39
2023-10-02T03:30:41.749Z,28.38
2023-10-02T03:31:50.369Z,28.36
2023-10-02T03:32:53.339Z,28.37
2023-10-02T03:33:55.742Z,28.36
2023-10-02T03:35:03.988Z,28.35
2023-10-02T03:36:09.502Z,28.37
2023-10-02T03:37:11.841Z,28.35
2023-10-02T03:38:15.576Z,28.34
2023-10-02T03:39:36.887Z,28.33
2023-10-02T03:40:43.527Z,28.36
2023-10-02T03:41:50.000Z,28.32
2023-10-02T03:42:55.879Z,28.32
2023-10-02T03:43:58.282Z,28.32
2023-10-02T03:45:05.462Z,28.32
2023-10-02T03:46:08.020Z,28.32
2023-10-02T03:47:14.207Z,28.30
2023-10-02T03:48:16.694Z,28.30
2023-10-02T03:49:20.296Z,28.29
2023-10-02T03:50:25.497Z,28.29
2023-10-02T03:51:37.668Z,28.31
2023-10-02T03:52:42.801Z,28.29
2023-10-02T03:53:45.706Z,28.28
2023-10-02T03:54:50.356Z,28.27
2023-10-02T03:56:25.657Z,28.31
2023-10-02T03:57:46.584Z,28.29
2023-10-02T03:58:53.432Z,28.31
2023-10-02T03:59:55.804Z,28.27
2023-10-02T04:00:58.874Z,28.23
2023-10-02T04:02:20.301Z,28.24
2023-10-02T04:03:22.746Z,28.25
2023-10-02T04:04:25.991Z,28.22
2023-10-02T04:05:47.274Z,28.20
2023-10-02T04:06:54.732Z,28.23
2023-10-02T04:08:23.266Z,28.21
2023-10-02T04:09:26.489Z,28.22
2023-10-02T04:10:48.975Z,28.20
2023-10-02T04:12:05.465Z,28.26
2023-10-02T04:13:09.950Z,28.21
2023-10-02T04:14:18.928Z,28.19
2023-10-02T04:15:22.524Z,28.18
2023-10-02T04:16:30.768Z,28.18
2023-10-02T04:17:35.988Z,28.17
2023-10-02T04:18:47.416Z,28.17
2023-10-02T04:19:53.283Z,28.17
2023-10-02T04:21:02.982Z,28.14
2023-10-02T04:22:07.942Z,28.16
2023-10-02T04:23:22.344Z,28.14
2023-10-02T04:24:25.260Z,28.15
2023-10-02T04:25:36.296Z,28.14
2023-10-02T04:26:42.810Z,28.14
2023-10-02T04:27:45.098Z,28.13
2023-10-02T04:28:56.415Z,28.15
2023-10-02T04:30:22.358Z,28.13
2023-10-02T04:31:31.173Z,28.11
2023-10-02T04:32:33.546Z,28.12
2023-10-02T04:33:39.686Z,28.11
2023-10-02T04:34:52.087Z,28.10
2023-10-02T04:35:58.506Z,28.11
2023-10-02T04:37:14.023Z,28.09
2023-10-02T04:38:16.696Z,28.11
2023-10-02T04:39:37.194Z,28.08
2023-10-02T04:40:50.819Z,28.10
2023-10-02T04:42:11.074Z,28.09
2023-10-02T04:43:20.502Z,28.09
2023-10-02T04:44:22.880Z,28.08
2023-10-02T04:45:35.518Z,28.06
2023-10-02T04:46:37.816Z,28.05
2023-10-02T04:47:41.829Z,28.05
2023-10-02T04:48:47.089Z,28.04
2023-10-02T04:50:06.546Z,28.07
2023-10-02T04:51:10.411Z,28.06
2023-10-02T04:52:15.436Z,28.02
2023-10-02T04:53:17.870Z,28.00
2023-10-02T04:54:20.484Z,28.00
2023-10-02T04:55:42.915Z,28.05
2023-10-02T04:56:47.687Z,28.02
2023-10-02T04:57:55.533Z,28.01
2023-10-02T04:59:04.546Z,28.00
2023-10-02T05:00:25.786Z,28.00
2023-10-02T05:01:36.256Z,28.02
2023-10-02T05:02:40.408Z,28.00
2023-10-02T05:03:50.969Z,27.97
2023-10-02T05:04:58.142Z,27.98
2023-10-02T05:06:01.629Z,27.98
2023-10-02T05:07:05.708Z,27.96
2023-10-02T05:08:16.888Z,27.94
2023-10-02T05:09:22.323Z,27.96
2023-10-02T05:10:24.631Z,27.96
2023-10-02T05:11:28.039Z,27.94
2023-10-02T05:12:34.745Z,27.93
2023-10-02T05:13:56.892Z,27.94
2023-10-02T05:15:08.344Z,27.96
2023-10-02T05:16:14.400Z,27.94
2023-10-02T05:17:40.037Z,27.94
2023-10-02T05:18:48.817Z,27.96
2023-10-02T05:19:58.341Z,27.94
2023-10-02T05:21:05.386Z,27.93
2023-10-02T05:22:08.449Z,27.93
2023-10-02T05:23:12.034Z,27.91
2023-10-02T05:24:14.369Z,27.89
2023-10-02T05:25:19.525Z,27.88
2023-10-02T05:26:34.121Z,27.88
2023-10-02T05:27:39.351Z,27.90
2023-10-02T05:28:45.582Z,27.89
2023-10-02T05:29:48.060Z,27.89
2023-10-02T05:30:50.654Z,27.87
2023-10-02T05:31:53.066Z,27.87
2023-10-02T05:32:57.778Z,27.85
2023-10-02T05:34:02.138Z,27.85
2023-10-02T05:35:07.188Z,27.85
2023-10-02T05:36:10.442Z,27.82
2023-10-02T05:37:24.220Z,27.86
2023-10-02T05:38:29.902Z,27.88
2023-10-02T05:39:41.555Z,27.87
2023-10-02T05:40:48.751Z,27.87
2023-10-02T05:41:52.728Z,27.87
2023-10-02T05:43:01.670Z,27.88
2023-10-02T05:44:14.087Z,27.86
2023-10-02T05:45:18.522Z,27.87
2023-10-02T05:46:20.928Z,27.84
2023-10-02T05:47:25.435Z,27.84
2023-10-02T05:48:27.821Z,27.84
2023-10-02T05:49:31.179Z,27.84
2023-10-02T05:50:34.422Z,27.83
2023-10-02T05:51:49.020Z,27.83
2023-10-02T05:52:52.272Z,27.85
2023-10-02T05:53:54.790Z,27.85
2023-10-02T05:54:57.469Z,27.84
2023-10-02T05:56:11.729Z,27.83
2023-10-02T05:57:14.747Z,27.86
2023-10-02T05:58:21.583Z,27.83
2023-10-02T05:59:26.219Z,27.84
2023-10-02T06:00:37.053Z,27.83
2023-10-02T06:01:39.512Z,27.84
2023-10-02T06:03:00.772Z,27.85
2023-10-02T06:04:06.337Z,27.88
2023-10-02T06:05:09.636Z,27.86
2023-10-02T06:06:19.551Z,27.84
2023-10-02T06:07:43.231Z,27.85
2023-10-02T06:08:52.781Z,27.89
2023-10-02T06:09:55.025Z,27.85
2023-10-02T06:11:09.936Z,27.84
2023-10-02T06:12:16.355Z,27.87
2023-10-02T06:13:18.589Z,27.84
2023-10-02T06:14:23.644Z,27.84
2023-10-02T06:15:44.377Z,27.83
2023-10-02T06:16:48.843Z,27.85
2023-10-02T06:17:52.275Z,27.83
2023-10-02T06:19:04.116Z,27.82
2023-10-02T06:20:19.079Z,27.83
2023-10-02T06:21:21.803Z,27.85
2023-10-02T06:22:24.070Z,27.82
2023-10-02T06:23:26.439Z,27.81
2023-10-02T06:24:31.667Z,27.81
2023-10-02T06:25:33.971Z,27.80
2023-10-02T06:26:50.942Z,27.81
2023-10-02T06:27:54.904Z,27.82
2023-10-02T06:29:17.501Z,27.82
2023-10-02T06:30:20.132Z,27.82
2023-10-02T06:31:32.454Z,27.80
2023-10-02T06:32:34.946Z,27.81
2023-10-02T06:33:38.250Z,27.80
2023-10-02T06:34:44.723Z,27.78
2023-10-02T06:35:58.112Z,27.79
2023-10-02T06:37:09.160Z,27.80
2023-10-02T06:38:19.378Z,27.81
2023-10-02T06:39:23.048Z,27.80
2023-10-02T06:40:25.395Z,27.80
2023-10-02T06:41:29.407Z,27.79
2023-10-02T06:42:32.381Z,27.80
2023-10-02T06:43:34.736Z,27.79
2023-10-02T06:44:53.671Z,27.80
2023-10-02T06:46:15.366Z,27.88
2023-10-02T06:47:17.832Z,27.83
2023-10-02T06:48:21.732Z,27.80
2023-10-02T06:49:24.397Z,27.79
2023-10-02T06:50:32.040Z,27.80
2023-10-02T06:51:34.582Z,27.80
2023-10-02T06:52:36.861Z,27.78
2023-10-02T06:53:42.255Z,27.79
2023-10-02T06:54:47.336Z,27.80
2023-10-02T06:56:00.027Z,27.79
2023-10-02T06:57:12.806Z,27.80
2023-10-02T06:58:16.028Z,27.82
2023-10-02T06:59:18.592Z,27.80
2023-10-02T07:00:22.492Z,27.79
2023-10-02T07:01:29.372Z,27.77
2023-10-02T07:02:33.566Z,27.78
2023-10-02T07:03:40.561Z,27.78
2023-10-02T07:04:44.081Z,27.78
2023-10-02T07:05:47.306Z,27.77
2023-10-02T07:06:49.589Z,27.79
2023-10-02T07:08:00.816Z,27.78
2023-10-02T07:09:13.161Z,27.79
2023-10-02T07:10:15.894Z,27.80
2023-10-02T07:11:19.956Z,27.79
2023-10-02T07:12:29.132Z,27.79
2023-10-02T07:13:34.477Z,27.82
2023-10-02T07:14:39.703Z,27.80
2023-10-02T07:15:43.336Z,27.81
2023-10-02T07:16:48.904Z,27.81
2023-10-02T07:18:01.998Z,27.83
2023-10-02T07:19:07.968Z,27.84
2023-10-02T07:20:12.993Z,27.83
2023-10-02T07:21:17.742Z,27.86
2023-10-02T07:22:24.975Z,27.88
2023-10-02T07:23:30.703Z,27.86
2023-10-02T07:24:34.912Z,27.87
2023-10-02T07:25:37.354Z,27.86
2023-10-02T07:26:52.605Z,27.87
2023-10-02T07:27:58.440Z,27.88
2023-10-02T07:29:01.886Z,27.89
2023-10-02T07:30:06.108Z,27.88
2023-10-02T07:31:16.820Z,27.91
2023-10-02T07:32:24.031Z,27.92
2023-10-02T07:33:27.021Z,27.90
2023-10-02T07:34:29.302Z,27.90
2023-10-02T07:35:31.769Z,27.90
2023-10-02T07:36:45.581Z,27.90
2023-10-02T07:37:59.184Z,27.91
2023-10-02T07:39:01.923Z,27.93
2023-10-02T07:40:07.353Z,27.93
2023-10-02T07:41:28.442Z,28.02
2023-10-02T07:42:32.623Z,27.96
2023-10-02T07:43:35.254Z,27.96
2023-10-02T07:44:39.005Z,27.96
2023-10-02T07:45:42.253Z,27.96
2023-10-02T07:46:45.676Z,27.97
2023-10-02T07:48:06.467Z,27.97
2023-10-02T07:49:11.371Z,27.98
2023-10-02T07:50:25.266Z,27.98
2023-10-02T07:51:36.488Z,28.00
2023-10-02T07:52:39.970Z,28.02
2023-10-02T07:53:42.805Z,28.02
2023-10-02T07:54:49.848Z,28.00
2023-10-02T07:55:52.183Z,28.01
2023-10-02T07:56:55.710Z,28.00
2023-10-02T07:58:02.217Z,28.04
2023-10-02T07:59:05.514Z,28.05
2023-10-02T08:00:29.126Z,28.05
2023-10-02T08:01:35.570Z,28.09
2023-10-02T08:02:41.297Z,28.08
2023-10-02T08:03:44.287Z,28.09
2023-10-02T08:04:48.982Z,28.09
2023-10-02T08:05:52.536Z,28.06
2023-10-02T08:07:04.712Z,28.10
2023-10-02T08:08:20.083Z,28.13
2023-10-02T08:09:36.941Z,28.14
2023-10-02T08:10:50.609Z,28.16
2023-10-02T08:11:54.805Z,28.15
2023-10-02T08:12:58.704Z,28.16
2023-10-02T08:14:02.197Z,28.15
2023-10-02T08:15:27.556Z,28.18
2023-10-02T08:16:34.244Z,28.19
2023-10-02T08:17:36.632Z,28.19
2023-10-02T08:18:59.356Z,28.18
2023-10-02T08:20:17.056Z,28.22
2023-10-02T08:21:21.766Z,28.22
2023-10-02T08:22:26.093Z,28.21
2023-10-02T08:23:29.012Z,28.22
2023-10-02T08:24:31.856Z,28.21
2023-10-02T08:25:35.148Z,28.22
2023-10-02T08:26:41.562Z,28.23
2023-10-02T08:27:45.393Z,28.24
2023-10-02T08:28:48.068Z,28.25
2023-10-02T08:29:50.330Z,28.26
2023-10-02T08:31:01.164Z,28.26
2023-10-02T08:32:05.927Z,28.28
2023-10-02T08:33:35.785Z,28.28
2023-10-02T08:34:32.924Z,28.33
2023-10-02T08:35:38.267Z,28.32
2023-10-02T08:36:44.551Z,28.36
2023-10-02T08:37:47.317Z,28.33
2023-10-02T08:38:52.157Z,28.33
2023-10-02T08:39:57.525Z,28.34
2023-10-02T08:41:05.130Z,28.38
2023-10-02T08:42:12.440Z,28.35
2023-10-02T08:43:19.506Z,28.36
2023-10-02T08:44:23.705Z,28.36
2023-10-02T08:45:27.479Z,28.37
2023-10-02T08:46:32.433Z,28.37
2023-10-02T08:47:36.609Z,28.39
2023-10-02T08:48:38.921Z,28.39
2023-10-02T08:49:41.441Z,28.41
2023-10-02T08:50:48.021Z,28.42
2023-10-02T08:51:50.937Z,28.43
2023-10-02T08:52:54.140Z,28.42
2023-10-02T08:54:01.207Z,28.46
2023-10-02T08:55:46.008Z,28.54
2023-10-02T08:57:07.879Z,28.61
2023-10-02T08:58:23.544Z,28.53
2023-10-02T08:59:29.171Z,28.53
2023-10-02T09:00:32.083Z,28.52
2023-10-02T09:01:35.296Z,28.51
2023-10-02T09:02:41.722Z,28.50
2023-10-02T09:04:11.061Z,28.56
2023-10-02T09:05:14.635Z,28.57
2023-10-02T09:06:29.968Z,28.54
2023-10-02T09:08:02.337Z,28.56
2023-10-02T09:09:16.092Z,28.58
2023-10-02T09:10:26.662Z,28.61
2023-10-02T09:11:38.136Z,28.62
2023-10-02T09:12:51.236Z,28.59
2023-10-02T09:14:21.669Z,28.67
2023-10-02T09:15:36.371Z,28.69
2023-10-02T09:16:38.981Z,28.64
2023-10-02T09:17:46.428Z,28.62
2023-10-02T09:19:07.389Z,28.62
2023-10-02T09:20:10.207Z,28.65
2023-10-02T09:21:16.558Z,28.63
2023-10-02T09:22:21.909Z,28.65
2023-10-02T09:23:28.754Z,28.68
2023-10-02T09:24:31.321Z,28.67
2023-10-02T09:25:38.349Z,28.67
2023-10-02T09:26:44.427Z,28.71
2023-10-02T09:27:58.314Z,28.72
2023-10-02T09:29:03.029Z,28.71
2023-10-02T09:30:18.951Z,28.72
2023-10-02T09:31:25.941Z,28.73
2023-10-02T09:32:28.913Z,28.74
2023-10-02T09:33:45.642Z,28.73
2023-10-02T09:36:02.376Z,28.79
2023-10-02T09:37:01.347Z,28.82
2023-10-02T09:38:15.336Z,28.87
2023-10-02T09:39:37.865Z,28.82
2023-10-02T09:41:01.050Z,28.84
2023-10-02T09:42:08.327Z,28.85
2023-10-02T09:43:15.524Z,28.84
2023-10-02T09:44:22.898Z,28.84
2023-10-02T09:45:32.749Z,28.85
2023-10-02T09:46:36.829Z,28.87
2023-10-02T09:47:51.141Z,28.87
2023-10-02T09:49:21.036Z,28.95
2023-10-02T09:50:27.851Z,28.94
2023-10-02T09:52:29.947Z,29.05
2023-10-02T09:54:03.328Z,29.01
2023-10-02T09:55:13.704Z,29.03
2023-10-02T09:56:19.465Z,29.02
2023-10-02T09:57:26.921Z,29.01
2023-10-02T09:58:50.471Z,29.07
2023-10-02T09:59:56.111Z,29.03
2023-10-02T10:01:27.474Z,29.13
2023-10-02T10:02:29.997Z,29.07
2023-10-02T10:03:33.023Z,29.05
2023-10-02T10:05:01.819Z,29.13
2023-10-02T10:06:17.087Z,29.12
2023-10-02T10:07:39.350Z,29.08
2023-10-02T10:09:17.030Z,29.23
2023-10-02T10:10:51.020Z,29.21
2023-10-02T10:12:13.455Z,29.16
2023-10-02T10:13:47.355Z,29.25
2023-10-02T10:14:55.716Z,29.17
2023-10-02T10:16:24.849Z,29.26
2023-10-02T10:17:50.179Z,29.20
2023-10-02T10:19:07.434Z,29.23
2023-10-02T10:20:21.648Z,29.20
2023-10-02T10:21:59.470Z,29.30
2023-10-02T10:23:32.449Z,29.33
2023-10-02T10:25:00.118Z,29.25
2023-10-02T10:26:09.504Z,29.26
2023-10-02T10:27:11.916Z,29.24
2023-10-02T10:28:28.691Z,29.33
2023-10-02T10:30:06.546Z,29.33
2023-10-02T10:31:10.432Z,29.30
2023-10-02T10:32:20.480Z,29.33
2023-10-02T10:33:27.250Z,29.30
2023-10-02T10:35:13.612Z,29.39
2023-10-02T10:36:36.954Z,29.43
2023-10-02T10:37:49.426Z,29.40
2023-10-02T10:38:51.959Z,29.36
2023-10-02T10:39:55.914Z,29.34
2023-10-02T10:41:07.292Z,29.34
2023-10-02T10:42:10.748Z,29.37
2023-10-02T10:43:16.385Z,29.37
2023-10-02T10:44:23.677Z,29.41
2023-10-02T10:45:31.219Z,29.39
2023-10-02T10:46:33.923Z,29.41
2023-10-02T10:47:39.871Z,29.41
2023-10-02T10:48:42.244Z,29.41
2023-10-02T10:49:55.299Z,29.46
2023-10-02T10:50:58.738Z,29.47
2023-10-02T10:52:01.937Z,29.46
2023-10-02T10:53:24.511Z,29.48
2023-10-02T10:54:39.210Z,29.51
2023-10-02T10:55:56.360Z,29.55
2023-10-02T10:57:15.583Z,29.55
2023-10-02T10:58:34.644Z,29.62
2023-10-02T10:59:37.542Z,29.58
2023-10-02T11:00:42.248Z,29.59
2023-10-02T11:02:10.048Z,29.62
2023-10-02T11:03:21.338Z,29.61
2023-10-02T11:04:28.125Z,29.60
2023-10-02T11:05:36.189Z,29.61
2023-10-02T11:06:42.903Z,29.64
2023-10-02T11:07:48.777Z,29.62
2023-10-02T11:09:14.284Z,29.75
2023-10-02T11:10:24.748Z,29.68
2023-10-02T11:11:28.826Z,29.67
2023-10-02T11:12:41.091Z,29.73
2023-10-02T11:13:59.846Z,29.69
2023-10-02T11:15:02.403Z,29.71
2023-10-02T11:16:11.076Z,29.69
2023-10-02T11:17:30.282Z,29.71
2023-10-02T11:18:32.767Z,29.72
2023-10-02T11:19:47.539Z,29.79
2023-10-02T11:20:51.920Z,29.76
2023-10-02T11:22:20.278Z,29.83
2023-10-02T11:23:45.287Z,29.87
2023-10-02T11:24:56.512Z,29.84
2023-10-02T11:25:59.818Z,29.80
2023-10-02T11:27:08.086Z,29.82
2023-10-02T11:28:10.340Z,29.80
2023-10-02T11:29:22.136Z,29.85
2023-10-02T11:30:32.466Z,29.81
2023-10-02T11:31:37.112Z,29.84
2023-10-02T11:32:59.846Z,29.89
2023-10-02T11:34:31.654Z,29.89
2023-10-02T11:35:39.691Z,29.89
2023-10-02T11:36:53.739Z,29.89
2023-10-02T11:37:57.917Z,29.89
2023-10-02T11:39:00.391Z,29.90
2023-10-02T11:40:04.903Z,29.90
2023-10-02T11:41:07.423Z,29.91
2023-10-02T11:42:10.052Z,29.91
2023-10-02T11:43:12.488Z,29.91
2023-10-02T11:44:15.950Z,29.93
2023-10-02T11:45:18.701Z,29.95
2023-10-02T11:46:22.367Z,29.96
2023-10-02T11:47:27.797Z,29.96
2023-10-02T11:48:30.364Z,29.99
2023-10-02T11:49:32.633Z,30.00
2023-10-02T11:50:34.965Z,30.00
2023-10-02T11:51:37.632Z,30.00
2023-10-02T11:52:39.902Z,30.03
2023-10-02T11:53:42.175Z,30.04
2023-10-02T11:54:44.491Z,30.08
2023-10-02T11:55:46.944Z,30.06
2023-10-02T11:56:49.637Z,30.08
2023-10-02T11:57:54.705Z,30.09
2023-10-02T11:58:57.705Z,30.11
2023-10-02T12:00:09.218Z,30.11
2023-10-02T12:01:11.700Z,30.13
2023-10-02T12:02:14.962Z,30.13
2023-10-02T12:03:19.432Z,30.13
2023-10-02T12:04:21.909Z,30.14
2023-10-02T12:05:24.358Z,30.15
2023-10-02T12:06:27.718Z,30.13
2023-10-02T12:07:30.021Z,30.15
2023-10-02T12:08:35.038Z,30.15
2023-10-02T12:09:37.766Z,30.16
2023-10-02T12:10:40.605Z,30.17
2023-10-02T12:11:43.088Z,30.18
2023-10-02T12:12:48.924Z,30.19
2023-10-02T12:13:52.429Z,30.20
2023-10-02T12:14:56.053Z,30.20
2023-10-02T12:15:59.440Z,30.22
2023-10-02T12:17:01.973Z,30.21
2023-10-02T12:18:05.651Z,30.20
2023-10-02T12:19:11.383Z,30.22
2023-10-02T12:20:20.594Z,30.23
2023-10-02T12:21:23.359Z,30.24
2023-10-02T12:22:27.496Z,30.23
2023-10-02T12:23:30.017Z,30.23
2023-10-02T12:24:32.786Z,30.24
2023-10-02T12:25:37.508Z,30.24
2023-10-02T12:26:42.151Z,30.24
2023-10-02T12:27:45.320Z,30.25
2023-10-02T12:28:48.154Z,30.25
2023-10-02T12:29:51.910Z,30.25
2023-10-02T12:30:55.014Z,30.27
2023-10-02T12:32:02.173Z,30.27
2023-10-02T12:33:05.479Z,30.28
2023-10-02T12:34:07.973Z,30.28
2023-10-02T12:35:10.720Z,30.29
2023-10-02T12:36:18.509Z,30.32
2023-10-02T12:37:21.604Z,30.32
2023-10-02T12:38:25.533Z,30.31
2023-10-02T12:39:30.561Z,30.33
2023-10-02T12:40:35.102Z,30.32
2023-10-02T12:41:37.513Z,30.34
2023-10-02T12:42:39.838Z,30.33
2023-10-02T12:43:44.022Z,30.35
2023-10-02T12:44:46.340Z,30.36
2023-10-02T12:45:48.666Z,30.35
2023-10-02T12:46:54.061Z,30.36
2023-10-02T12:47:56.528Z,30.37
2023-10-02T12:49:00.211Z,30.37
2023-10-02T12:50:02.752Z,30.39
2023-10-02T12:51:10.850Z,30.41
2023-10-02T12:52:13.119Z,30.40
2023-10-02T12:53:15.520Z,30.41
2023-10-02T12:54:18.157Z,30.42
2023-10-02T12:55:22.510Z,30.43
2023-10-02T12:56:27.681Z,30.42
2023-10-02T12:57:30.048Z,30.44
2023-10-02T12:58:33.895Z,30.45
2023-10-02T12:59:36.433Z,30.46
2023-10-02T13:00:38.747Z,30.48
2023-10-02T13:01:42.198Z,30.47
2023-10-02T13:02:46.180Z,30.49
2023-10-02T13:03:49.148Z,30.50
2023-10-02T13:04:51.918Z,30.50
2023-10-02T13:05:55.551Z,30.50
2023-10-02T13:06:58.281Z,30.51
2023-10-02T13:08:00.777Z,30.52
2023-10-02T13:09:13.651Z,30.52
2023-10-02T13:10:16.226Z,30.56
2023-10-02T13:11:22.543Z,30.55
2023-10-02T13:12:25.242Z,30.32
2023-10-02T13:13:28.972Z,30.45
2023-10-02T13:14:32.345Z,30.50
2023-10-02T13:15:36.102Z,30.55
2023-10-02T13:16:39.725Z,30.57
2023-10-02T13:17:42.350Z,30.59
2023-10-02T13:18:45.441Z,30.59
2023-10-02T13:19:48.055Z,30.62
2023-10-02T13:20:55.291Z,30.62
2023-10-02T13:21:59.210Z,30.65
2023-10-02T13:23:03.363Z,30.66
2023-10-02T13:24:07.325Z,30.67
2023-10-02T13:25:13.201Z,30.68
2023-10-02T13:26:17.826Z,30.68
2023-10-02T13:27:20.956Z,30.69
2023-10-02T13:28:23.560Z,30.70
2023-10-02T13:29:26.023Z,30.70
2023-10-02T13:30:31.569Z,30.69
2023-10-02T13:31:33.955Z,30.71
2023-10-02T13:32:36.676Z,30.71
2023-10-02T13:33:41.964Z,30.72
2023-10-02T13:34:44.274Z,30.73
2023-10-02T13:35:50.738Z,30.74
2023-10-02T13:36:53.364Z,30.75
2023-10-02T13:37:56.073Z,30.74
2023-10-02T13:38:59.342Z,30.76
2023-10-02T13:40:02.131Z,30.76
2023-10-02T13:41:11.740Z,30.81
2023-10-02T13:42:15.556Z,30.78
2023-10-02T13:43:19.157Z,30.78
2023-10-02T13:44:22.566Z,30.79
2023-10-02T13:45:26.196Z,30.79
2023-10-02T13:46:28.782Z,30.78
2023-10-02T13:47:37.235Z,30.81
2023-10-02T13:48:40.645Z,30.81
2023-10-02T13:49:44.994Z,30.81
2023-10-02T13:51:01.045Z,30.81
2023-10-02T13:52:06.028Z,30.84
2023-10-02T13:53:09.354Z,30.84
2023-10-02T13:54:11.631Z,30.84
2023-10-02T13:55:28.103Z,30.83
2023-10-02T13:56:34.692Z,30.86
2023-10-02T13:57:37.526Z,30.86
2023-10-02T13:58:41.584Z,30.83
2023-10-02T13:59:44.805Z,30.85
2023-10-02T14:00:48.130Z,30.85
2023-10-02T14:01:50.700Z,30.86
2023-10-02T14:02:54.291Z,30.85
2023-10-02T14:03:57.691Z,30.87
2023-10-02T14:05:02.424Z,30.86
2023-10-02T14:06:09.665Z,30.90
2023-10-02T14:07:11.954Z,30.87
2023-10-02T14:08:14.578Z,30.90
2023-10-02T14:09:17.350Z,30.88
2023-10-02T14:10:20.210Z,30.91
2023-10-02T14:11:27.713Z,30.92
2023-10-02T14:12:30.466Z,30.91
2023-10-02T14:13:34.445Z,30.91
2023-10-02T14:14:37.287Z,30.92
2023-10-02T14:15:39.979Z,30.93
2023-10-02T14:16:42.740Z,30.93
2023-10-02T14:17:48.640Z,30.95
2023-10-02T14:18:56.751Z,30.93
2023-10-02T14:20:00.403Z,30.97
2023-10-02T14:21:06.723Z,30.95
2023-10-02T14:22:09.410Z,30.95
2023-10-02T14:23:12.031Z,30.97
2023-10-02T14:24:17.430Z,30.95
2023-10-02T14:25:25.051Z,30.96
2023-10-02T14:26:29.346Z,30.97
2023-10-02T14:27:31.626Z,30.97
2023-10-02T14:28:34.066Z,30.97
2023-10-02T14:29:36.374Z,30.96
2023-10-02T14:30:41.163Z,30.95
2023-10-02T14:31:45.396Z,30.98
2023-10-02T14:32:48.243Z,30.98
2023-10-02T14:33:52.250Z,30.97
2023-10-02T14:34:55.226Z,30.98
2023-10-02T14:35:58.974Z,30.99